Time;durP1;ratioP1;P1;durP2;ratioP2;P2;SDS_P1;SDS_P2;PMS_P1;PMS_P2;Temp;Humidity;BMP_temperature;BMP_pressure;BME280_temperature;BME280_humidity;BME280_pressure;Samples;Min_cycle;Max_cycle;Signal;HPM_P1;HPM_P2
2023/10/29 00:00:05;;;;;;;;;;;14.90;99.90;;;;;;5033804;28;20036;-62
2023/10/29 00:02:31;;;;;;;;;;;14.90;99.90;;;;;;5033324;28;20081;-62
2023/10/29 00:04:56;;;;;;;;;;;14.80;99.90;;;;;;5033827;28;20025;-63
2023/10/29 00:07:22;;;;;;;;;;;14.80;99.90;;;;;;5033394;28;20014;-65
2023/10/29 00:09:47;;;;;;;;;;;14.80;99.90;;;;;;5033236;28;19982;-63
2023/10/29 00:12:13;;;;;;;;;;;14.80;99.90;;;;;;5033725;28;20016;-64
2023/10/29 00:14:38;;;;;;;;;;;14.80;99.90;;;;;;5033744;28;20459;-63
2023/10/29 00:17:04;;;;;;;;;;;14.80;99.90;;;;;;5033289;28;19998;-64
2023/10/29 00:19:31;;;;;;;;;;;14.90;99.90;;;;;;5033636;28;19993;-65
2023/10/29 00:21:57;;;;;;;;;;;14.80;99.90;;;;;;5033362;28;20112;-65
2023/10/29 00:24:23;;;;;;;;;;;14.80;99.90;;;;;;5033538;28;20067;-62
2023/10/29 00:26:48;;;;;;;;;;;14.80;99.90;;;;;;5033352;28;20021;-65
2023/10/29 00:29:14;;;;;;;;;;;14.80;99.90;;;;;;5033662;28;19987;-65
2023/10/29 00:31:40;;;;;;;;;;;14.80;99.90;;;;;;5033234;28;20502;-63
2023/10/29 00:34:05;;;;;;;;;;;14.70;99.90;;;;;;5033344;28;19989;-63
2023/10/29 00:36:31;;;;;;;;;;;14.60;99.90;;;;;;5033316;28;20021;-65
2023/10/29 00:38:56;;;;;;;;;;;14.60;99.90;;;;;;5033483;28;20028;-64
2023/10/29 00:41:22;;;;;;;;;;;14.50;99.90;;;;;;5033313;28;20036;-61
2023/10/29 00:43:47;;;;;;;;;;;14.40;99.90;;;;;;5033086;28;19982;-62
2023/10/29 00:46:14;;;;;;;;;;;14.30;99.90;;;;;;5033383;28;20006;-64
2023/10/29 00:48:40;;;;;;;;;;;14.30;99.90;;;;;;5033147;28;20001;-64
2023/10/29 00:51:06;;;;;;;;;;;14.30;99.90;;;;;;5033558;28;20419;-64
2023/10/29 00:53:33;;;;;;;;;;;14.40;99.90;;;;;;5033155;28;20029;-64
2023/10/29 00:55:59;;;;;;;;;;;14.30;99.90;;;;;;5033476;28;20383;-61
2023/10/29 00:58:25;;;;;;;;;;;14.30;99.90;;;;;;5033248;28;19986;-64
2023/10/29 01:00:51;;;;;;;;;;;14.20;99.90;;;;;;5033385;28;19988;-66
2023/10/29 01:03:18;;;;;;;;;;;14.20;99.90;;;;;;5033099;28;20451;-62
2023/10/29 01:05:44;;;;;;;;;;;14.20;99.90;;;;;;5033033;28;19982;-62
2023/10/29 01:08:10;;;;;;;;;;;14.20;99.90;;;;;;5032902;28;20159;-63
2023/10/29 01:10:36;;;;;;;;;;;14.20;99.90;;;;;;5033262;28;20076;-60
2023/10/29 01:13:01;;;;;;;;;;;14.30;99.90;;;;;;5032815;28;20436;-63
2023/10/29 01:15:27;;;;;;;;;;;14.30;99.90;;;;;;5033139;28;20362;-62
2023/10/29 01:17:52;;;;;;;;;;;14.30;99.90;;;;;;5032906;28;19988;-62
2023/10/29 01:20:18;;;;;;;;;;;14.30;99.90;;;;;;5034979;28;20022;-64
2023/10/29 01:22:44;;;;;;;;;;;14.30;99.90;;;;;;5036694;28;20077;-64
2023/10/29 01:25:10;;;;;;;;;;;14.30;99.90;;;;;;5036460;28;19993;-60
2023/10/29 01:27:36;;;;;;;;;;;14.20;99.90;;;;;;5036152;28;20106;-61
2023/10/29 01:30:02;;;;;;;;;;;14.20;99.90;;;;;;5036330;28;20041;-62
2023/10/29 01:32:28;;;;;;;;;;;14.10;99.90;;;;;;5036203;28;19990;-62
2023/10/29 01:34:54;;;;;;;;;;;14.00;99.90;;;;;;5036319;28;19982;-64
2023/10/29 01:37:20;;;;;;;;;;;14.00;99.90;;;;;;5036202;28;20060;-65
2023/10/29 01:39:45;;;;;;;;;;;14.00;99.90;;;;;;5036467;28;19986;-64
2023/10/29 01:42:11;;;;;;;;;;;14.00;99.90;;;;;;5036060;28;19986;-64
2023/10/29 01:44:36;;;;;;;;;;;14.00;99.90;;;;;;5036040;28;19982;-62
2023/10/29 01:47:02;;;;;;;;;;;13.90;99.90;;;;;;5036151;28;20057;-62
2023/10/29 01:49:28;;;;;;;;;;;13.90;99.90;;;;;;5035978;28;20356;-64
2023/10/29 01:51:54;;;;;;;;;;;13.90;99.90;;;;;;5035927;28;19989;-64
2023/10/29 01:54:20;;;;;;;;;;;13.90;99.90;;;;;;5036142;28;19987;-64
2023/10/29 01:56:46;;;;;;;;;;;13.80;99.90;;;;;;5035976;28;19989;-63
2023/10/29 01:59:13;;;;;;;;;;;13.80;99.90;;;;;;5035651;28;20352;-63
2023/10/29 02:01:39;;;;;;;;;;;13.80;99.90;;;;;;5035887;28;20387;-63
2023/10/29 02:04:07;;;;;;;;;;;13.70;99.90;;;;;;5035909;28;19982;-62
2023/10/29 02:06:38;;;;;;;;;;;13.60;99.90;;;;;;5035612;28;20006;-65
2023/10/29 02:09:03;;;;;;;;;;;13.70;99.90;;;;;;5035992;28;19986;-63
2023/10/29 02:11:29;;;;;;;;;;;13.70;99.90;;;;;;5035767;28;20470;-66
2023/10/29 02:13:54;;;;;;;;;;;13.70;99.90;;;;;;5035440;28;19982;-62
2023/10/29 02:16:20;;;;;;;;;;;13.70;99.90;;;;;;5035487;28;20048;-65
2023/10/29 02:18:45;;;;;;;;;;;13.70;99.90;;;;;;5035596;28;19989;-63
2023/10/29 02:21:11;;;;;;;;;;;13.70;99.90;;;;;;5035342;28;20018;-64
2023/10/29 02:23:36;;;;;;;;;;;13.80;99.90;;;;;;5035387;28;19982;-65
2023/10/29 02:26:02;;;;;;;;;;;13.70;99.90;;;;;;5035309;28;20188;-64
2023/10/29 02:28:28;;;;;;;;;;;13.70;99.90;;;;;;5035429;28;20452;-66
2023/10/29 02:30:54;;;;;;;;;;;13.70;99.90;;;;;;5034646;28;20425;-63
2023/10/29 02:33:19;;;;;;;;;;;13.70;99.90;;;;;;5035176;28;19990;-61
2023/10/29 02:35:46;;;;;;;;;;;13.70;99.90;;;;;;5035331;28;19982;-60
2023/10/29 02:38:11;;;;;;;;;;;13.60;99.90;;;;;;5035263;28;20002;-65
2023/10/29 02:40:37;;;;;;;;;;;13.60;99.90;;;;;;5035147;28;20437;-63
2023/10/29 02:43:04;;;;;;;;;;;13.60;99.90;;;;;;5035116;28;19989;-62
2023/10/29 02:45:30;;;;;;;;;;;13.60;99.90;;;;;;5034973;28;19993;-62
2023/10/29 02:47:55;;;;;;;;;;;13.70;99.90;;;;;;5034839;28;20010;-63
2023/10/29 02:50:21;;;;;;;;;;;13.70;99.90;;;;;;5034922;28;20028;-63
2023/10/29 02:52:46;;;;;;;;;;;13.80;99.90;;;;;;5034966;28;19982;-63
2023/10/29 02:55:12;;;;;;;;;;;13.80;99.90;;;;;;5034579;28;19982;-65
2023/10/29 02:57:37;;;;;;;;;;;13.90;99.90;;;;;;5035064;28;19986;-64
2023/10/29 03:00:04;;;;;;;;;;;13.90;99.90;;;;;;5034796;28;20391;-65
2023/10/29 03:02:29;;;;;;;;;;;13.90;99.90;;;;;;5034603;28;19986;-65
2023/10/29 03:04:55;;;;;;;;;;;13.90;99.90;;;;;;5034762;28;19983;-65
2023/10/29 03:07:20;;;;;;;;;;;13.80;99.90;;;;;;5034445;28;20060;-63
2023/10/29 03:09:46;;;;;;;;;;;13.90;99.90;;;;;;5034564;28;19985;-63
2023/10/29 03:12:12;;;;;;;;;;;13.80;99.90;;;;;;5034637;28;19989;-64
2023/10/29 03:14:37;;;;;;;;;;;13.80;99.90;;;;;;5034728;28;20038;-61
2023/10/29 03:17:03;;;;;;;;;;;13.80;99.90;;;;;;5034355;28;19982;-64
2023/10/29 03:19:28;;;;;;;;;;;13.80;99.90;;;;;;5034387;28;20005;-65
2023/10/29 03:21:54;;;;;;;;;;;13.70;99.90;;;;;;5034159;28;20477;-64
2023/10/29 03:24:20;;;;;;;;;;;13.70;99.90;;;;;;5034577;28;20009;-62
2023/10/29 03:26:45;;;;;;;;;;;13.70;99.90;;;;;;5034140;28;20075;-63
2023/10/29 03:29:11;;;;;;;;;;;13.60;99.90;;;;;;5034330;28;20012;-65
2023/10/29 03:31:37;;;;;;;;;;;13.60;99.90;;;;;;5016496;28;19986;-63
2023/10/29 03:34:03;;;;;;;;;;;13.60;99.90;;;;;;5033995;28;19986;-64
2023/10/29 03:36:29;;;;;;;;;;;13.70;99.90;;;;;;5033910;28;20035;-60
2023/10/29 03:38:54;;;;;;;;;;;13.70;99.90;;;;;;5033867;28;20076;-62
2023/10/29 03:41:23;;;;;;;;;;;13.70;99.90;;;;;;5033940;28;19982;-63
2023/10/29 03:43:49;;;;;;;;;;;13.60;99.90;;;;;;5033078;28;20428;-66
2023/10/29 03:46:15;;;;;;;;;;;13.60;99.90;;;;;;5034138;28;20021;-62
2023/10/29 03:48:44;;;;;;;;;;;13.50;99.90;;;;;;5033796;28;20009;-62
2023/10/29 03:51:13;;;;;;;;;;;13.50;99.90;;;;;;5033826;28;19992;-63
2023/10/29 03:53:38;;;;;;;;;;;13.50;99.90;;;;;;5033606;28;19982;-64
2023/10/29 03:56:04;;;;;;;;;;;13.50;99.90;;;;;;5033729;28;19986;-64
2023/10/29 03:58:30;;;;;;;;;;;13.50;99.90;;;;;;5033717;28;20021;-64
2023/10/29 04:00:56;;;;;;;;;;;13.60;99.90;;;;;;5033945;28;20021;-62
2023/10/29 04:03:22;;;;;;;;;;;13.60;99.90;;;;;;5033640;28;20044;-65
2023/10/29 04:05:47;;;;;;;;;;;13.60;99.90;;;;;;5033744;28;20436;-63
2023/10/29 04:08:13;;;;;;;;;;;13.50;99.90;;;;;;5033597;28;20086;-64
2023/10/29 04:10:39;;;;;;;;;;;13.50;99.90;;;;;;5033639;28;19986;-64
2023/10/29 04:13:04;;;;;;;;;;;13.50;99.90;;;;;;5033460;28;19982;-62
2023/10/29 04:15:30;;;;;;;;;;;13.50;99.90;;;;;;5015873;28;20098;-62
2023/10/29 04:17:56;;;;;;;;;;;13.40;99.90;;;;;;5033508;28;19982;-64
2023/10/29 04:20:23;;;;;;;;;;;13.40;99.90;;;;;;5033525;28;20025;-63
2023/10/29 04:22:48;;;;;;;;;;;13.40;99.90;;;;;;5033278;28;20350;-64
2023/10/29 04:25:14;;;;;;;;;;;13.30;99.90;;;;;;5033729;28;19993;-65
2023/10/29 04:27:40;;;;;;;;;;;13.30;99.90;;;;;;5033238;28;20486;-66
2023/10/29 04:30:06;;;;;;;;;;;13.30;99.90;;;;;;5015696;28;19986;-66
2023/10/29 04:32:32;;;;;;;;;;;13.30;99.90;;;;;;5033498;28;19982;-65
2023/10/29 04:34:57;;;;;;;;;;;13.30;99.90;;;;;;5033283;28;19986;-66
2023/10/29 04:37:23;;;;;;;;;;;13.30;99.90;;;;;;5033566;28;20048;-62
2023/10/29 04:39:50;;;;;;;;;;;13.30;99.90;;;;;;5033412;28;20029;-65
2023/10/29 04:42:15;;;;;;;;;;;13.20;99.90;;;;;;5033353;28;19989;-62
2023/10/29 04:44:42;;;;;;;;;;;13.20;99.90;;;;;;5033429;28;19986;-62
2023/10/29 04:47:07;;;;;;;;;;;13.10;99.90;;;;;;5033485;28;20184;-63
2023/10/29 04:49:33;;;;;;;;;;;13.10;99.90;;;;;;5033172;28;20448;-61
2023/10/29 04:51:59;;;;;;;;;;;13.10;99.90;;;;;;5032950;28;19982;-63
2023/10/29 04:54:24;;;;;;;;;;;13.10;99.90;;;;;;5034314;28;19983;-65
2023/10/29 04:56:50;;;;;;;;;;;13.10;99.90;;;;;;5036950;28;19993;-63
2023/10/29 04:59:15;;;;;;;;;;;13.20;99.90;;;;;;5037211;28;20035;-61
2023/10/29 05:01:41;;;;;;;;;;;13.20;99.90;;;;;;5037103;28;19982;-65
2023/10/29 05:04:06;;;;;;;;;;;13.10;99.90;;;;;;5036963;28;20352;-63
2023/10/29 05:06:32;;;;;;;;;;;13.10;99.90;;;;;;5036514;28;20447;-62
2023/10/29 05:08:58;;;;;;;;;;;13.10;99.90;;;;;;5037099;28;19993;-64
2023/10/29 05:11:23;;;;;;;;;;;13.10;99.90;;;;;;5036728;28;19986;-63
2023/10/29 05:13:49;;;;;;;;;;;13.00;99.90;;;;;;5036705;28;20037;-65
2023/10/29 05:16:14;;;;;;;;;;;12.90;99.90;;;;;;5036886;28;19993;-65
2023/10/29 05:18:40;;;;;;;;;;;12.90;99.90;;;;;;5036637;28;20036;-64
2023/10/29 05:21:07;;;;;;;;;;;12.80;99.90;;;;;;5036242;28;20022;-65
2023/10/29 05:23:33;;;;;;;;;;;12.70;99.90;;;;;;5036511;28;20468;-61
2023/10/29 05:25:59;;;;;;;;;;;12.70;99.90;;;;;;5036373;28;20011;-65
2023/10/29 05:28:26;;;;;;;;;;;12.70;99.90;;;;;;5036425;28;19986;-64
2023/10/29 05:30:52;;;;;;;;;;;12.70;99.90;;;;;;5036626;28;20020;-61
2023/10/29 05:33:18;;;;;;;;;;;12.70;99.90;;;;;;5036653;28;20021;-64
2023/10/29 05:35:43;;;;;;;;;;;12.80;99.90;;;;;;5036260;28;19982;-63
2023/10/29 05:38:09;;;;;;;;;;;12.80;99.90;;;;;;5036140;28;20008;-66
2023/10/29 05:40:34;;;;;;;;;;;12.80;99.90;;;;;;5036298;28;19986;-60
2023/10/29 05:43:00;;;;;;;;;;;12.90;99.90;;;;;;5036282;28;20025;-63
2023/10/29 05:45:26;;;;;;;;;;;12.90;99.90;;;;;;5036126;28;20055;-61
2023/10/29 05:47:52;;;;;;;;;;;13.00;99.90;;;;;;5036196;28;20061;-64
2023/10/29 05:50:17;;;;;;;;;;;12.90;99.90;;;;;;5035811;28;20030;-64
2023/10/29 05:52:45;;;;;;;;;;;13.00;99.90;;;;;;5035980;28;19989;-62
2023/10/29 05:55:11;;;;;;;;;;;13.00;99.90;;;;;;5036221;28;19986;-64
2023/10/29 05:57:36;;;;;;;;;;;13.10;99.90;;;;;;5035960;28;20447;-65
2023/10/29 06:00:02;;;;;;;;;;;13.10;99.90;;;;;;5018140;28;20041;-66
2023/10/29 06:02:28;;;;;;;;;;;13.00;99.90;;;;;;5035751;28;19993;-62
2023/10/29 06:04:54;;;;;;;;;;;13.00;99.90;;;;;;5035760;28;19989;-64
2023/10/29 06:07:19;;;;;;;;;;;13.10;99.90;;;;;;5034815;28;20009;-66
2023/10/29 06:09:45;;;;;;;;;;;13.10;99.90;;;;;;5035678;28;20056;-64
2023/10/29 06:12:10;;;;;;;;;;;13.10;99.90;;;;;;5035635;28;20355;-63
2023/10/29 06:14:36;;;;;;;;;;;13.20;99.90;;;;;;5035782;28;20040;-63
2023/10/29 06:17:01;;;;;;;;;;;13.20;99.90;;;;;;5035400;28;20436;-62
2023/10/29 06:19:27;;;;;;;;;;;13.20;99.90;;;;;;5035548;28;19990;-62
2023/10/29 06:21:53;;;;;;;;;;;13.20;99.90;;;;;;5035326;28;20054;-65
2023/10/29 06:24:18;;;;;;;;;;;13.20;99.90;;;;;;5035531;28;20029;-65
2023/10/29 06:26:44;;;;;;;;;;;13.30;99.90;;;;;;5035308;28;20539;-63
2023/10/29 06:29:09;;;;;;;;;;;13.30;99.90;;;;;;5035486;28;19986;-63
2023/10/29 06:31:35;;;;;;;;;;;13.30;99.90;;;;;;5035645;28;20348;-65
2023/10/29 06:34:01;;;;;;;;;;;13.30;99.90;;;;;;5035005;28;19989;-62
2023/10/29 06:36:27;;;;;;;;;;;13.30;99.90;;;;;;5035392;28;19982;-65
2023/10/29 06:38:53;;;;;;;;;;;13.30;99.90;;;;;;5035189;28;19982;-62
2023/10/29 06:41:19;;;;;;;;;;;13.40;99.90;;;;;;5035091;28;20429;-64
2023/10/29 06:43:44;;;;;;;;;;;13.40;99.90;;;;;;5035041;28;20334;-65
2023/10/29 06:46:10;;;;;;;;;;;13.40;99.90;;;;;;5034983;28;19983;-64
2023/10/29 06:48:41;;;;;;;;;;;13.40;99.90;;;;;;5034822;28;19982;-62
2023/10/29 06:51:10;;;;;;;;;;;13.50;99.90;;;;;;5035196;28;19982;-63
2023/10/29 06:53:36;;;;;;;;;;;13.50;99.90;;;;;;5035111;28;19985;-64
2023/10/29 06:56:02;;;;;;;;;;;13.60;99.90;;;;;;5034793;28;19982;-61
2023/10/29 06:58:28;;;;;;;;;;;13.60;99.90;;;;;;5034848;28;19981;-63
2023/10/29 07:00:53;;;;;;;;;;;13.70;99.90;;;;;;5034731;28;20433;-63
2023/10/29 07:03:19;;;;;;;;;;;14.70;99.90;;;;;;5034531;28;19986;-62
2023/10/29 07:05:44;;;;;;;;;;;18.10;97.00;;;;;;5034632;28;20303;-66
2023/10/29 07:08:10;;;;;;;;;;;21.30;72.00;;;;;;5034591;28;20056;-63
2023/10/29 07:10:36;;;;;;;;;;;23.80;57.40;;;;;;5034631;28;20073;-65
2023/10/29 07:13:02;;;;;;;;;;;25.60;51.30;;;;;;5034407;28;19994;-64
2023/10/29 07:15:28;;;;;;;;;;;27.40;45.90;;;;;;5034538;28;19982;-67
2023/10/29 07:17:53;;;;;;;;;;;28.90;41.90;;;;;;5034072;28;19983;-62
2023/10/29 07:20:19;;;;;;;;;;;29.80;40.20;;;;;;5034353;28;20484;-64
2023/10/29 07:22:44;;;;;;;;;;;30.50;37.80;;;;;;5034355;28;19982;-64
2023/10/29 07:25:10;;;;;;;;;;;31.10;36.20;;;;;;5034316;28;20352;-64
2023/10/29 07:27:35;;;;;;;;;;;31.70;35.80;;;;;;5034147;28;20022;-65
2023/10/29 07:30:02;;;;;;;;;;;32.30;34.50;;;;;;5034255;28;19982;-65
2023/10/29 07:32:28;;;;;;;;;;;32.80;34.00;;;;;;5034155;28;19988;-64
2023/10/29 07:34:54;;;;;;;;;;;32.80;32.80;;;;;;5034051;28;20077;-64
2023/10/29 07:37:19;;;;;;;;;;;32.90;32.90;;;;;;5034050;28;20010;-63
2023/10/29 07:39:45;;;;;;;;;;;33.50;33.50;;;;;;5034004;28;19987;-66
2023/10/29 07:42:10;;;;;;;;;;;33.80;31.70;;;;;;5034073;28;19983;-61
2023/10/29 07:44:36;;;;;;;;;;;34.00;32.20;;;;;;5033979;28;20053;-63
2023/10/29 07:47:07;;;;;;;;;;;34.30;32.20;;;;;;5033711;28;20108;-64
2023/10/29 07:49:35;;;;;;;;;;;34.70;30.90;;;;;;5034319;28;20334;-63
2023/10/29 07:52:00;;;;;;;;;;;35.10;30.80;;;;;;5033839;28;20017;-65
2023/10/29 07:54:27;;;;;;;;;;;35.40;31.50;;;;;;5034124;28;20441;-60
2023/10/29 07:56:53;;;;;;;;;;;35.50;31.10;;;;;;5033787;28;19986;-62
2023/10/29 07:59:19;;;;;;;;;;;35.80;30.50;;;;;;5033768;28;19990;-63
2023/10/29 08:01:45;;;;;;;;;;;36.00;29.90;;;;;;5033811;28;19986;-62
2023/10/29 08:04:10;;;;;;;;;;;36.20;29.60;;;;;;5033786;28;19997;-64
2023/10/29 08:06:36;;;;;;;;;;;36.20;29.20;;;;;;5033828;28;20017;-65
2023/10/29 08:09:02;;;;;;;;;;;36.20;29.40;;;;;;5033806;28;19990;-66
2023/10/29 08:11:27;;;;;;;;;;;36.10;29.40;;;;;;5033750;28;19982;-67
2023/10/29 08:13:53;;;;;;;;;;;36.00;30.50;;;;;;5033500;28;19986;-66
2023/10/29 08:16:18;;;;;;;;;;;36.00;29.90;;;;;;5033529;28;20018;-66
2023/10/29 08:18:44;;;;;;;;;;;36.00;30.80;;;;;;5033498;28;20464;-64
2023/10/29 08:21:09;;;;;;;;;;;36.10;30.60;;;;;;5033399;28;20029;-63
2023/10/29 08:23:35;;;;;;;;;;;36.30;30.40;;;;;;5033650;28;19986;-66
2023/10/29 08:26:01;;;;;;;;;;;36.20;30.30;;;;;;5033779;28;19986;-60
2023/10/29 08:28:27;;;;;;;;;;;35.90;31.60;;;;;;5033428;28;20107;-65
2023/10/29 08:30:54;;;;;;;;;;;35.70;30.40;;;;;;5037042;28;19982;-64
2023/10/29 08:33:20;;;;;;;;;;;35.40;31.30;;;;;;5037861;28;19994;-65
2023/10/29 08:35:46;;;;;;;;;;;34.90;32.20;;;;;;5037792;28;19994;-60
2023/10/29 08:38:12;;;;;;;;;;;34.50;32.70;;;;;;5037291;28;19998;-62
2023/10/29 08:40:38;;;;;;;;;;;34.20;32.90;;;;;;5037609;28;20025;-61
2023/10/29 08:43:04;;;;;;;;;;;34.00;34.40;;;;;;5037397;28;20013;-65
2023/10/29 08:45:30;;;;;;;;;;;33.60;34.80;;;;;;5037176;28;19990;-64
2023/10/29 08:47:55;;;;;;;;;;;33.30;35.70;;;;;;5037392;28;20010;-63
2023/10/29 08:50:21;;;;;;;;;;;33.00;33.80;;;;;;5037437;28;19986;-60
2023/10/29 08:52:46;;;;;;;;;;;32.80;35.20;;;;;;5037407;28;19994;-62
2023/10/29 08:55:12;;;;;;;;;;;32.50;35.70;;;;;;5037136;28;20072;-65
2023/10/29 08:57:37;;;;;;;;;;;32.40;36.40;;;;;;5037215;28;20441;-62
2023/10/29 09:00:03;;;;;;;;;;;32.20;37.30;;;;;;5037106;28;20452;-68
2023/10/29 09:02:29;;;;;;;;;;;32.10;35.70;;;;;;5036965;28;19982;-63
2023/10/29 09:04:57;;;;;;;;;;;32.00;34.90;;;;;;5037194;28;19986;-65
2023/10/29 09:07:25;;;;;;;;;;;31.80;34.40;;;;;;5037061;28;20010;-66
2023/10/29 09:09:52;;;;;;;;;;;31.70;32.50;;;;;;5036747;28;20112;-66
2023/10/29 09:12:17;;;;;;;;;;;31.60;35.30;;;;;;5036764;28;19982;-64
2023/10/29 09:14:43;;;;;;;;;;;31.60;31.90;;;;;;5036974;28;19993;-63
2023/10/29 09:17:09;;;;;;;;;;;31.50;35.70;;;;;;5036666;28;20359;-61
2023/10/29 09:19:35;;;;;;;;;;;31.50;33.30;;;;;;5036810;28;20431;-63
2023/10/29 09:22:01;;;;;;;;;;;31.50;35.50;;;;;;5036535;28;20028;-64
2023/10/29 09:24:26;;;;;;;;;;;31.70;31.90;;;;;;5036511;28;20498;-64
2023/10/29 09:26:53;;;;;;;;;;;31.70;33.90;;;;;;5036583;28;20061;-67
2023/10/29 09:29:19;;;;;;;;;;;31.60;32.60;;;;;;5036822;28;19993;-65
2023/10/29 09:31:44;;;;;;;;;;;31.60;34.70;;;;;;5036477;28;20356;-61
2023/10/29 09:34:10;;;;;;;;;;;31.80;38.80;;;;;;5036650;28;19986;-65
2023/10/29 09:36:36;;;;;;;;;;;31.90;37.50;;;;;;5036438;28;19982;-63
2023/10/29 09:39:02;;;;;;;;;;;31.90;31.90;;;;;;5036417;28;19989;-65
2023/10/29 09:41:27;;;;;;;;;;;31.80;35.20;;;;;;5034656;28;20369;-67
2023/10/29 09:43:53;;;;;;;;;;;31.90;36.30;;;;;;5036317;28;20013;-63
2023/10/29 09:46:19;;;;;;;;;;;31.80;34.20;;;;;;5036170;28;19982;-62
2023/10/29 09:48:45;;;;;;;;;;;31.90;32.70;;;;;;5036112;28;19982;-64
2023/10/29 09:51:10;;;;;;;;;;;31.90;31.40;;;;;;5036084;28;19988;-63
2023/10/29 09:53:36;;;;;;;;;;;31.70;32.10;;;;;;5036041;28;19989;-64
2023/10/29 09:56:03;;;;;;;;;;;31.70;33.70;;;;;;5035995;28;19985;-63
2023/10/29 09:58:28;;;;;;;;;;;31.60;33.10;;;;;;5035955;28;20475;-63
2023/10/29 10:00:56;;;;;;;;;;;31.60;31.40;;;;;;5035887;28;19986;-66
2023/10/29 10:03:24;;;;;;;;;;;31.80;34.50;;;;;;5035768;28;19986;-65
2023/10/29 10:05:50;;;;;;;;;;;32.00;34.40;;;;;;5035785;28;20024;-66
2023/10/29 10:08:22;;;;;;;;;;;32.20;33.30;;;;;;5035690;28;20006;-63
2023/10/29 10:10:48;;;;;;;;;;;32.40;32.10;;;;;;5035761;28;20088;-60
2023/10/29 10:13:15;;;;;;;;;;;32.50;30.00;;;;;;5035956;28;19993;-64
2023/10/29 10:15:41;;;;;;;;;;;32.40;30.90;;;;;;5035569;28;19987;-65
2023/10/29 10:18:06;;;;;;;;;;;32.60;29.90;;;;;;5035531;28;19993;-61
2023/10/29 10:20:35;;;;;;;;;;;32.50;28.60;;;;;;5035369;28;20029;-66
2023/10/29 10:23:06;;;;;;;;;;;32.50;28.30;;;;;;5035614;28;19982;-61
2023/10/29 10:25:32;;;;;;;;;;;32.30;28.80;;;;;;5035194;28;19982;-67
2023/10/29 10:27:59;;;;;;;;;;;32.30;30.20;;;;;;5035499;28;20375;-61
2023/10/29 10:30:25;;;;;;;;;;;32.30;30.60;;;;;;5035388;28;20484;-65
2023/10/29 10:32:51;;;;;;;;;;;32.50;31.90;;;;;;5035262;28;20061;-65
2023/10/29 10:35:17;;;;;;;;;;;32.80;30.00;;;;;;5035468;28;19987;-63
2023/10/29 10:37:55;;;;;;;;;;;32.90;31.70;;;;;;5035438;28;20437;-63
2023/10/29 10:40:23;;;;;;;;;;;32.30;31.60;;;;;;5034884;28;20017;-66
2023/10/29 10:42:53;;;;;;;;;;;32.30;29.50;;;;;;5035345;28;19989;-66
2023/10/29 10:45:26;;;;;;;;;;;32.40;32.70;;;;;;5035072;28;20479;-65
2023/10/29 10:47:54;;;;;;;;;;;32.60;30.40;;;;;;5035192;28;20009;-62
2023/10/29 10:50:20;;;;;;;;;;;32.90;29.90;;;;;;5035088;28;20016;-66
2023/10/29 10:52:46;;;;;;;;;;;33.00;29.80;;;;;;5034814;28;19986;-65
2023/10/29 10:55:12;;;;;;;;;;;33.00;30.00;;;;;;5034983;28;19990;-65
2023/10/29 10:57:37;;;;;;;;;;;33.10;33.30;;;;;;5034965;28;20437;-61
2023/10/29 11:00:05;;;;;;;;;;;33.20;30.50;;;;;;5034805;28;19989;-63
2023/10/29 11:02:33;;;;;;;;;;;33.40;30.70;;;;;;5034696;28;20037;-63
2023/10/29 11:04:59;;;;;;;;;;;33.40;29.10;;;;;;5034758;28;20124;-67
2023/10/29 11:07:26;;;;;;;;;;;33.40;30.10;;;;;;5034676;28;20006;-64
2023/10/29 11:09:52;;;;;;;;;;;33.30;29.40;;;;;;5034573;28;19987;-63
2023/10/29 11:12:20;;;;;;;;;;;33.20;27.80;;;;;;5034610;28;20068;-64
2023/10/29 11:15:04;;;;;;;;;;;33.00;29.50;;;;;;5034842;28;19994;-63
2023/10/29 11:17:48;;;;;;;;;;;33.10;28.40;;;;;;5034525;28;20174;-64
2023/10/29 11:20:33;;;;;;;;;;;33.20;29.60;;;;;;5034383;28;20033;-65
2023/10/29 11:23:05;;;;;;;;;;;33.00;29.10;;;;;;5034068;28;19986;-62
2023/10/29 11:25:31;;;;;;;;;;;32.50;29.80;;;;;;5034279;28;19982;-62
2023/10/29 11:27:56;;;;;;;;;;;32.50;29.70;;;;;;5034191;28;20372;-63
2023/10/29 11:30:41;;;;;;;;;;;32.80;29.60;;;;;;5033510;28;20806;-63
2023/10/29 11:33:10;;;;;;;;;;;33.10;29.40;;;;;;5034369;28;20022;-66
2023/10/29 11:35:36;;;;;;;;;;;33.00;28.20;;;;;;5034269;28;20029;-66
2023/10/29 11:38:21;;;;;;;;;;;32.80;27.60;;;;;;5033832;28;19998;-61
2023/10/29 11:40:49;;;;;;;;;;;32.80;29.30;;;;;;5033948;28;19986;-62
2023/10/29 11:43:15;;;;;;;;;;;33.00;29.20;;;;;;5034411;28;20117;-60
2023/10/29 11:45:41;;;;;;;;;;;33.00;29.30;;;;;;5034153;28;19986;-59
2023/10/29 11:48:10;;;;;;;;;;;33.10;27.90;;;;;;5034158;28;20372;-59
2023/10/29 11:50:36;;;;;;;;;;;33.20;28.60;;;;;;5033829;28;20045;-61
2023/10/29 11:53:02;;;;;;;;;;;33.30;28.10;;;;;;5033542;28;20364;-61
2023/10/29 11:55:28;;;;;;;;;;;33.10;28.10;;;;;;5033991;28;19988;-61
2023/10/29 11:57:54;;;;;;;;;;;32.80;28.10;;;;;;5033824;28;20498;-61
2023/10/29 12:00:21;;;;;;;;;;;32.40;27.80;;;;;;5033982;28;19990;-62
2023/10/29 12:02:49;;;;;;;;;;;32.40;28.30;;;;;;5034029;28;19986;-60
2023/10/29 12:05:17;;;;;;;;;;;32.70;28.40;;;;;;5032978;28;20009;-62
2023/10/29 12:07:43;;;;;;;;;;;32.80;28.80;;;;;;5033311;28;20013;-62
2023/10/29 12:10:09;;;;;;;;;;;32.80;28.40;;;;;;5033594;28;19986;-61
2023/10/29 12:12:34;;;;;;;;;;;32.80;29.20;;;;;;5033744;28;20077;-60
2023/10/29 12:15:01;;;;;;;;;;;32.70;29.40;;;;;;5033511;28;20376;-65
2023/10/29 12:17:29;;;;;;;;;;;32.70;30.00;;;;;;5033616;28;20045;-66
2023/10/29 12:19:55;;;;;;;;;;;32.90;29.90;;;;;;5033652;28;19982;-62
2023/10/29 12:22:27;;;;;;;;;;;33.20;27.90;;;;;;5033181;28;20018;-63
2023/10/29 12:24:55;;;;;;;;;;;33.10;27.60;;;;;;5033607;28;20004;-63
2023/10/29 12:27:24;;;;;;;;;;;33.20;28.90;;;;;;5033399;28;20459;-60
2023/10/29 12:29:50;;;;;;;;;;;33.30;28.40;;;;;;5033360;28;20016;-62
2023/10/29 12:32:20;;;;;;;;;;;33.20;29.00;;;;;;5033683;28;20081;-63
2023/10/29 12:34:53;;;;;;;;;;;33.00;27.40;;;;;;5033661;28;19987;-62
2023/10/29 12:37:25;;;;;;;;;;;32.70;27.40;;;;;;5033382;28;20056;-60
2023/10/29 12:39:56;;;;;;;;;;;32.90;28.30;;;;;;5033415;28;19990;-61
2023/10/29 12:42:41;;;;;;;;;;;33.10;27.60;;;;;;5033261;28;20356;-63
2023/10/29 12:45:08;;;;;;;;;;;33.10;27.20;;;;;;5015959;28;19993;-66
2023/10/29 12:47:34;;;;;;;;;;;32.70;27.20;;;;;;5033193;28;20006;-62
2023/10/29 12:50:01;;;;;;;;;;;32.70;28.00;;;;;;5033347;28;20396;-59
2023/10/29 12:52:27;;;;;;;;;;;32.80;27.80;;;;;;5033295;28;19983;-61
2023/10/29 12:54:53;;;;;;;;;;;33.00;27.60;;;;;;5033466;28;19986;-65
2023/10/29 12:57:18;;;;;;;;;;;33.10;26.90;;;;;;5033117;28;20440;-63
2023/10/29 12:59:45;;;;;;;;;;;32.90;27.20;;;;;;5033304;28;20030;-60
2023/10/29 13:02:21;;;;;;;;;;;33.00;27.10;;;;;;5033226;28;19989;-64
2023/10/29 13:04:48;;;;;;;;;;;33.10;26.80;;;;;;5032993;28;19985;-59
2023/10/29 13:07:14;;;;;;;;;;;32.90;26.40;;;;;;5033320;28;20010;-65
2023/10/29 13:09:40;;;;;;;;;;;32.80;26.90;;;;;;5033269;28;19990;-60
2023/10/29 13:12:08;;;;;;;;;;;33.10;27.00;;;;;;5033067;28;20432;-62
2023/10/29 13:14:36;;;;;;;;;;;33.30;26.70;;;;;;5033045;28;19986;-64
2023/10/29 13:17:06;;;;;;;;;;;33.10;26.30;;;;;;5036412;28;19989;-58
2023/10/29 13:19:33;;;;;;;;;;;32.90;27.20;;;;;;5036605;28;20352;-59
2023/10/29 13:21:58;;;;;;;;;;;33.00;27.00;;;;;;5036608;28;20021;-65
2023/10/29 13:24:24;;;;;;;;;;;33.10;27.60;;;;;;5036453;28;19993;-64
2023/10/29 13:26:51;;;;;;;;;;;33.10;26.60;;;;;;5036486;28;20013;-60
2023/10/29 13:29:16;;;;;;;;;;;33.00;27.10;;;;;;5018821;28;20423;-65
2023/10/29 13:31:43;;;;;;;;;;;33.10;27.30;;;;;;5036680;28;20085;-58
2023/10/29 13:34:08;;;;;;;;;;;33.20;26.40;;;;;;5036367;28;20407;-61
2023/10/29 13:36:34;;;;;;;;;;;32.80;27.00;;;;;;5036585;28;19993;-65
2023/10/29 13:39:01;;;;;;;;;;;32.80;26.50;;;;;;5036642;28;19990;-64
2023/10/29 13:41:27;;;;;;;;;;;32.80;27.00;;;;;;5036235;28;20033;-66
2023/10/29 13:43:52;;;;;;;;;;;33.10;27.60;;;;;;5036382;28;19982;-61
2023/10/29 13:46:18;;;;;;;;;;;32.80;29.70;;;;;;5036466;28;20032;-62
2023/10/29 13:48:45;;;;;;;;;;;32.60;27.90;;;;;;5035920;28;19982;-61
2023/10/29 13:51:11;;;;;;;;;;;32.40;27.70;;;;;;5036295;28;20073;-64
2023/10/29 13:53:36;;;;;;;;;;;32.50;29.40;;;;;;5036102;28;20452;-63
2023/10/29 13:56:09;;;;;;;;;;;32.70;28.90;;;;;;5036124;28;19987;-65
2023/10/29 13:58:34;;;;;;;;;;;32.20;29.40;;;;;;5035917;28;19993;-62
2023/10/29 14:01:00;;;;;;;;;;;31.70;29.50;;;;;;5036148;28;19990;-62
2023/10/29 14:03:26;;;;;;;;;;;31.30;31.30;;;;;;5035710;28;19982;-66
2023/10/29 14:05:51;;;;;;;;;;;30.80;29.40;;;;;;5036089;28;19986;-60
2023/10/29 14:08:17;;;;;;;;;;;31.00;29.30;;;;;;5035775;28;20379;-59
2023/10/29 14:10:42;;;;;;;;;;;31.30;28.60;;;;;;5035706;28;20421;-63